Time,TemperatureF,DewpointF,PressureIn,WindDirection,WindDirectionDegrees,WindSpeedMPH,WindSpeedGustMPH,Humidity,HourlyPrecipIn,Conditions,Clouds,dailyrainin,SolarRadiationWatts/m^2,SoftwareType,DateUTC
2013-02-10 00:00:00,30.1,13.2,29.82,WSW,240,3.0,-999.0,53,-99.99,,,0.00,0.0,cwc,2013-02-10 07:00:00,
2013-02-10 00:05:00,30.1,12.8,29.82,SW,234,3.0,-999.0,52,-99.99,,,0.00,0.0,cwc,2013-02-10 07:05:00,
2013-02-10 00:10:00,30.0,12.7,29.82,SW,229,1.0,-999.0,52,-99.99,,,0.00,0.0,cwc,2013-02-10 07:10:00,
2013-02-10 00:15:00,30.0,12.4,29.83,SW,220,11.0,-999.0,51,-99.99,,,0.00,0.0,cwc,2013-02-10 07:15:00,
2013-02-10 00:20:00,30.0,12.4,29.83,WSW,246,6.0,-999.0,51,-99.99,,,0.00,0.0,cwc,2013-02-10 07:20:00,
2013-02-10 00:25:00,30.0,12.4,29.83,West,280,4.0,-999.0,51,-99.99,,,0.00,0.0,cwc,2013-02-10 07:25:00,
2013-02-10 00:30:00,29.9,12.3,29.83,SSW,211,5.0,-999.0,51,-99.99,,,0.00,0.0,cwc,2013-02-10 07:30:00,
2013-02-10 00:35:00,29.9,12.3,29.83,West,264,3.0,-999.0,51,-99.99,,,0.00,0.0,cwc,2013-02-10 07:35:00,
2013-02-10 00:40:00,29.8,12.2,29.83,WSW,238,8.0,-999.0,51,-99.99,,,0.00,0.0,cwc,2013-02-10 07:40:00,
2013-02-10 00:45:00,29.8,12.5,29.83,WSW,248,5.0,-999.0,52,-99.99,,,0.00,0.0,cwc,2013-02-10 07:45:00,
2013-02-10 00:55:00,29.6,12.3,29.83,SSW,207,0.0,-999.0,52,-99.99,,,0.00,0.0,cwc,2013-02-10 07:55:00,
2013-02-10 01:00:00,29.5,12.2,29.84,WNW,294,5.0,-999.0,52,-99.99,,,0.00,0.0,cwc,2013-02-10 08:00:00,
2013-02-10 01:05:00,29.4,12.5,29.84,West,278,1.0,-999.0,53,-99.99,,,0.00,0.0,cwc,2013-02-10 08:05:00,
2013-02-10 01:10:00,29.4,12.5,29.84,West,267,2.0,-999.0,53,-99.99,,,0.00,0.0,cwc,2013-02-10 08:10:00,
2013-02-10 01:15:00,29.4,12.5,29.84,SW,229,6.0,-999.0,53,-99.99,,,0.00,0.0,cwc,2013-02-10 08:15:00,
2013-02-10 01:20:00,29.3,12.4,29.84,West,277,3.0,-999.0,53,-99.99,,,0.00,0.0,cwc,2013-02-10 08:20:00,
2013-02-10 01:25:00,29.3,12.0,29.84,SSW,205,5.0,-999.0,52,-99.99,,,0.00,0.0,cwc,2013-02-10 08:25:00,
2013-02-10 01:30:00,29.3,12.4,29.84,SSW,207,0.0,-999.0,53,-99.99,,,0.00,0.0,cwc,2013-02-10 08:30:00,
2013-02-10 01:35:00,29.3,12.4,29.84,SSW,206,0.0,-999.0,53,-99.99,,,0.00,0.0,cwc,2013-02-10 08:35:00,
2013-02-10 01:40:00,29.2,12.3,29.84,NW,317,0.0,-999.0,53,-99.99,,,0.00,0.0,cwc,2013-02-10 08:40:00,
2013-02-10 01:45:00,29.1,12.5,29.84,NW,307,2.0,-999.0,54,-99.99,,,0.00,0.0,cwc,2013-02-10 08:45:00,
2013-02-10 01:50:00,29.1,12.5,29.84,NW,307,0.0,-999.0,54,-99.99,,,0.00,0.0,cwc,2013-02-10 08:50:00,
2013-02-10 01:55:00,28.9,12.3,29.85,NW,307,4.0,-999.0,54,-99.99,,,0.00,0.0,cwc,2013-02-10 08:55:00,
2013-02-10 02:00:00,28.8,12.2,29.85,NW,307,0.0,-999.0,54,-99.99,,,0.00,0.0,cwc,2013-02-10 09:00:00,
2013-02-10 02:05:00,28.7,12.1,29.84,SW,227,2.0,-999.0,54,-99.99,,,0.00,0.0,cwc,2013-02-10 09:05:00,
2013-02-10 02:10:00,28.7,12.1,29.84,SW,229,0.0,-999.0,54,-99.99,,,0.00,0.0,cwc,2013-02-10 09:10:00,
2013-02-10 02:15:00,28.7,12.1,29.84,SW,229,0.0,-999.0,54,-99.99,,,0.00,0.0,cwc,2013-02-10 09:15:00,
2013-02-10 02:20:00,28.5,11.9,29.84,SW,229,0.0,-999.0,54,-99.99,,,0.00,0.0,cwc,2013-02-10 09:20:00,
2013-02-10 02:25:00,28.5,12.3,29.84,SW,229,2.0,-999.0,55,-99.99,,,0.00,0.0,cwc,2013-02-10 09:25:00,
2013-02-10 02:30:00,28.4,11.8,29.84,SW,229,0.0,-999.0,54,-99.99,,,0.00,0.0,cwc,2013-02-10 09:30:00,
2013-02-10 02:35:00,28.3,11.7,29.84,SW,230,4.0,-999.0,54,-99.99,,,0.00,0.0,cwc,2013-02-10 09:35:00,
2013-02-10 02:40:00,28.3,11.7,29.84,SW,233,2.0,-999.0,54,-99.99,,,0.00,0.0,cwc,2013-02-10 09:40:00,
2013-02-10 02:45:00,28.3,11.7,29.85,SW,234,0.0,-999.0,54,-99.99,,,0.00,0.0,cwc,2013-02-10 09:45:00,
2013-02-10 02:50:00,28.4,11.8,29.85,SW,221,1.0,-999.0,54,-99.99,,,0.00,0.0,cwc,2013-02-10 09:50:00,
2013-02-10 02:55:00,28.5,11.9,29.85,SW,224,2.0,-999.0,54,-99.99,,,0.00,0.0,cwc,2013-02-10 09:55:00,
2013-02-10 03:00:00,28.5,11.9,29.85,West,275,4.0,-999.0,54,-99.99,,,0.00,0.0,cwc,2013-02-10 10:00:00,
2013-02-10 03:05:00,28.6,12.4,29.85,SW,234,1.0,-999.0,55,-99.99,,,0.00,0.0,cwc,2013-02-10 10:05:00,
2013-02-10 03:10:00,28.5,12.7,29.85,WSW,240,5.0,-999.0,56,-99.99,,,0.00,0.0,cwc,2013-02-10 10:10:00,
2013-02-10 03:15:00,28.4,12.6,29.85,WSW,249,3.0,-999.0,56,-99.99,,,0.00,0.0,cwc,2013-02-10 10:15:00,
2013-02-10 03:25:00,28.0,12.5,29.85,WSW,250,2.0,-999.0,57,-99.99,,,0.00,0.0,cwc,2013-02-10 10:25:00,
2013-02-10 03:30:00,27.9,12.4,29.85,WSW,250,2.0,-999.0,57,-99.99,,,0.00,0.0,cwc,2013-02-10 10:30:00,
2013-02-10 03:40:00,27.5,13.8,29.85,WSW,249,4.0,-999.0,62,-99.99,,,0.00,0.0,cwc,2013-02-10 10:40:00,
2013-02-10 03:45:00,27.3,12.2,29.85,WSW,248,0.0,-999.0,58,-99.99,,,0.00,0.0,cwc,2013-02-10 10:45:00,
2013-02-10 03:50:00,27.2,12.4,29.85,WSW,248,1.0,-999.0,59,-99.99,,,0.00,0.0,cwc,2013-02-10 10:50:00,
2013-02-10 04:00:00,27.0,12.2,29.85,WSW,252,0.0,-999.0,59,-99.99,,,0.00,0.0,cwc,2013-02-10 11:00:00,
2013-02-10 04:05:00,27.0,12.6,29.85,West,274,5.0,-999.0,60,-99.99,,,0.00,0.0,cwc,2013-02-10 11:05:00,
2013-02-10 04:10:00,26.9,12.5,29.85,SW,216,5.0,-999.0,60,-99.99,,,0.00,0.0,cwc,2013-02-10 11:10:00,
2013-02-10 04:15:00,27.0,12.6,29.85,WSW,244,2.0,-999.0,60,-99.99,,,0.00,0.0,cwc,2013-02-10 11:15:00,
2013-02-10 04:20:00,27.0,13.0,29.85,SW,218,4.0,-999.0,61,-99.99,,,0.00,0.0,cwc,2013-02-10 11:20:00,
2013-02-10 04:25:00,26.9,12.9,29.85,SW,222,3.0,-999.0,61,-99.99,,,0.00,0.0,cwc,2013-02-10 11:25:00,
2013-02-10 04:30:00,26.7,13.0,29.85,WSW,240,2.0,-999.0,62,-99.99,,,0.00,0.0,cwc,2013-02-10 11:30:00,
2013-02-10 04:40:00,26.6,13.3,29.85,WSW,240,1.0,-999.0,63,-99.99,,,0.00,0.0,cwc,2013-02-10 11:40:00,
2013-02-10 04:45:00,26.4,13.1,29.86,SW,232,3.0,-999.0,63,-99.99,,,0.00,0.0,cwc,2013-02-10 11:45:00,
2013-02-10 04:50:00,26.3,13.0,29.85,WSW,245,3.0,-999.0,63,-99.99,,,0.00,0.0,cwc,2013-02-10 11:50:00,
2013-02-10 04:55:00,26.4,13.1,29.85,SW,236,3.0,-999.0,63,-99.99,,,0.00,0.0,cwc,2013-02-10 11:55:00,
2013-02-10 05:00:00,26.4,13.1,29.85,WSW,250,4.0,-999.0,63,-99.99,,,0.00,0.0,cwc,2013-02-10 12:00:00,
2013-02-10 05:05:00,26.4,13.1,29.85,WSW,255,3.0,-999.0,63,-99.99,,,0.00,0.0,cwc,2013-02-10 12:05:00,
2013-02-10 05:10:00,26.3,13.0,29.85,WSW,256,1.0,-999.0,63,-99.99,,,0.00,0.0,cwc,2013-02-10 12:10:00,
2013-02-10 05:15:00,26.3,13.0,29.85,WSW,256,2.0,-999.0,63,-99.99,,,0.00,0.0,cwc,2013-02-10 12:15:00,
2013-02-10 05:20:00,26.1,12.8,29.85,WSW,249,3.0,-999.0,63,-99.99,,,0.00,0.0,cwc,2013-02-10 12:20:00,
2013-02-10 05:25:00,26.0,12.7,29.85,SW,234,7.0,-999.0,63,-99.99,,,0.00,0.0,cwc,2013-02-10 12:25:00,
2013-02-10 05:30:00,26.1,12.8,29.85,WSW,241,1.0,-999.0,63,-99.99,,,0.00,0.0,cwc,2013-02-10 12:30:00,
2013-02-10 05:35:00,26.0,12.7,29.86,WSW,241,6.0,-999.0,63,-99.99,,,0.00,0.0,cwc,2013-02-10 12:35:00,
2013-02-10 05:40:00,26.0,13.0,29.86,WSW,241,4.0,-999.0,64,-99.99,,,0.00,0.0,cwc,2013-02-10 12:40:00,
2013-02-10 05:45:00,25.8,12.8,29.86,WSW,238,3.0,-999.0,64,-99.99,,,0.00,0.0,cwc,2013-02-10 12:45:00,
2013-02-10 05:50:00,25.6,12.6,29.86,WSW,238,1.0,-999.0,64,-99.99,,,0.00,0.0,cwc,2013-02-10 12:50:00,
2013-02-10 05:55:00,25.1,12.1,29.86,WSW,238,2.0,-999.0,64,-99.99,,,0.00,0.0,cwc,2013-02-10 12:55:00,
2013-02-10 06:00:00,24.6,12.4,29.86,WSW,237,1.0,-999.0,66,-99.99,,,0.00,0.0,cwc,2013-02-10 13:00:00,
2013-02-10 06:05:00,24.2,12.3,29.86,WSW,237,0.0,-999.0,67,-99.99,,,0.00,0.0,cwc,2013-02-10 13:05:00,
2013-02-10 06:10:00,24.0,12.1,29.86,WSW,238,0.0,-999.0,67,-99.99,,,0.00,0.0,cwc,2013-02-10 13:10:00,
2013-02-10 06:15:00,23.5,11.6,29.87,WSW,238,1.0,-999.0,67,-99.99,,,0.00,0.0,cwc,2013-02-10 13:15:00,
2013-02-10 06:20:00,22.7,11.5,29.87,WSW,238,2.0,-999.0,69,-99.99,,,0.00,0.0,cwc,2013-02-10 13:20:00,
2013-02-10 06:25:00,22.1,11.7,29.87,WSW,237,1.0,-999.0,71,-99.99,,,0.00,0.0,cwc,2013-02-10 13:25:00,
2013-02-10 06:30:00,21.9,11.8,29.87,WSW,238,3.0,-999.0,72,-99.99,,,0.00,0.0,cwc,2013-02-10 13:30:00,
2013-02-10 06:35:00,21.8,12.1,29.87,WSW,238,2.0,-999.0,73,-99.99,,,0.00,0.0,cwc,2013-02-10 13:35:00,
2013-02-10 06:40:00,22.0,12.3,29.87,WSW,237,3.0,-999.0,73,-99.99,,,0.00,0.0,cwc,2013-02-10 13:40:00,
2013-02-10 06:45:00,21.9,11.8,29.87,WSW,237,1.0,-999.0,72,-99.99,,,0.00,0.0,cwc,2013-02-10 13:45:00,
2013-02-10 06:50:00,21.6,11.5,29.87,WSW,238,1.0,-999.0,72,-99.99,,,0.00,0.0,cwc,2013-02-10 13:50:00,
2013-02-10 06:55:00,21.3,11.6,29.88,WSW,238,1.0,-999.0,73,-99.99,,,0.00,0.0,cwc,2013-02-10 13:55:00,
2013-02-10 07:00:00,20.9,11.5,29.88,WSW,238,2.0,-999.0,74,-99.99,,,0.00,5.0,cwc,2013-02-10 14:00:00,
2013-02-10 07:05:00,20.8,11.8,29.88,WSW,238,0.0,-999.0,75,-99.99,,,0.00,7.0,cwc,2013-02-10 14:05:00,
2013-02-10 07:10:00,20.8,11.8,29.88,WSW,238,0.0,-999.0,75,-99.99,,,0.00,9.0,cwc,2013-02-10 14:10:00,
2013-02-10 07:15:00,20.8,11.8,29.88,WSW,237,2.0,-999.0,75,-99.99,,,0.00,11.0,cwc,2013-02-10 14:15:00,
2013-02-10 07:20:00,20.7,11.7,29.88,WSW,237,2.0,-999.0,75,-99.99,,,0.00,12.0,cwc,2013-02-10 14:20:00,
2013-02-10 07:25:00,20.9,11.9,29.89,WSW,238,3.0,-999.0,75,-99.99,,,0.00,14.0,cwc,2013-02-10 14:25:00,
2013-02-10 07:30:00,20.9,11.5,29.89,WSW,238,3.0,-999.0,74,-99.99,,,0.00,14.0,cwc,2013-02-10 14:30:00,
2013-02-10 07:35:00,20.9,11.5,29.89,WSW,238,3.0,-999.0,74,-99.99,,,0.00,18.0,cwc,2013-02-10 14:35:00,
2013-02-10 07:40:00,21.2,11.8,29.89,WSW,237,0.0,-999.0,74,-99.99,,,0.00,28.0,cwc,2013-02-10 14:40:00,
2013-02-10 07:45:00,21.4,11.7,29.89,WSW,238,0.0,-999.0,73,-99.99,,,0.00,67.0,cwc,2013-02-10 14:45:00,
2013-02-10 07:55:00,21.8,13.2,29.90,WSW,238,0.0,-999.0,76,-99.99,,,0.00,141.0,cwc,2013-02-10 14:55:00,
2013-02-10 08:00:00,22.3,13.3,29.90,WSW,237,0.0,-999.0,75,-99.99,,,0.00,69.0,cwc,2013-02-10 15:00:00,
2013-02-10 08:05:00,22.8,13.1,29.91,WSW,238,2.0,-999.0,73,-99.99,,,0.00,141.0,cwc,2013-02-10 15:05:00,
2013-02-10 08:10:00,23.5,13.1,29.91,WSW,254,2.0,-999.0,71,-99.99,,,0.00,76.0,cwc,2013-02-10 15:10:00,
2013-02-10 08:15:00,24.4,12.5,29.91,West,260,0.0,-999.0,67,-99.99,,,0.00,83.0,cwc,2013-02-10 15:15:00,
2013-02-10 08:20:00,24.9,13.4,29.91,West,260,0.0,-999.0,68,-99.99,,,0.00,77.0,cwc,2013-02-10 15:20:00,
2013-02-10 08:25:00,25.3,13.4,29.91,West,260,1.0,-999.0,67,-99.99,,,0.00,98.0,cwc,2013-02-10 15:25:00,
2013-02-10 08:30:00,25.9,13.3,29.91,West,260,0.0,-999.0,65,-99.99,,,0.00,128.0,cwc,2013-02-10 15:30:00,
2013-02-10 08:35:00,26.5,12.5,29.92,West,259,3.0,-999.0,61,-99.99,,,0.00,132.0,cwc,2013-02-10 15:35:00,
2013-02-10 08:40:00,27.0,12.6,29.92,WSW,258,3.0,-999.0,60,-99.99,,,0.00,149.0,cwc,2013-02-10 15:40:00,
2013-02-10 08:45:00,27.5,12.4,29.92,SW,215,2.0,-999.0,58,-99.99,,,0.00,105.0,cwc,2013-02-10 15:45:00,
2013-02-10 08:50:00,27.7,12.2,29.93,SW,221,4.0,-999.0,57,-99.99,,,0.00,102.0,cwc,2013-02-10 15:50:00,
2013-02-10 08:55:00,27.8,12.3,29.93,SW,230,5.0,-999.0,57,-99.99,,,0.00,156.0,cwc,2013-02-10 15:55:00,
2013-02-10 09:00:00,28.0,12.5,29.93,West,261,7.0,-999.0,57,-99.99,,,0.00,193.0,cwc,2013-02-10 16:00:00,
2013-02-10 09:05:00,28.3,12.5,29.93,West,265,4.0,-999.0,56,-99.99,,,0.00,473.0,cwc,2013-02-10 16:05:00,
2013-02-10 09:10:00,28.7,12.9,29.93,WSW,238,5.0,-999.0,56,-99.99,,,0.00,243.0,cwc,2013-02-10 16:10:00,
2013-02-10 09:15:00,29.0,12.8,29.93,SW,229,4.0,-999.0,55,-99.99,,,0.00,232.0,cwc,2013-02-10 16:15:00,
2013-02-10 09:20:00,29.2,13.0,29.93,SW,229,6.0,-999.0,55,-99.99,,,0.00,244.0,cwc,2013-02-10 16:20:00,
2013-02-10 09:25:00,29.4,12.8,29.93,SSW,200,2.0,-999.0,54,-99.99,,,0.00,183.0,cwc,2013-02-10 16:25:00,
2013-02-10 09:30:00,29.9,13.0,29.93,West,259,4.0,-999.0,53,-99.99,,,0.00,594.0,cwc,2013-02-10 16:30:00,
2013-02-10 09:35:00,30.2,13.3,29.93,SW,222,8.0,-999.0,53,-99.99,,,0.00,109.0,cwc,2013-02-10 16:35:00,
2013-02-10 09:40:00,30.2,12.9,29.93,West,268,5.0,-999.0,52,-99.99,,,0.00,141.0,cwc,2013-02-10 16:40:00,
2013-02-10 09:45:00,30.3,12.7,29.93,SSW,213,7.0,-999.0,51,-99.99,,,0.00,123.0,cwc,2013-02-10 16:45:00,
2013-02-10 09:50:00,30.3,12.7,29.94,SW,222,2.0,-999.0,51,-99.99,,,0.00,118.0,cwc,2013-02-10 16:50:00,
2013-02-10 09:55:00,30.3,12.3,29.94,SW,222,5.0,-999.0,50,-99.99,,,0.00,153.0,cwc,2013-02-10 16:55:00,
2013-02-10 10:00:00,30.3,12.7,29.94,SW,229,8.0,-999.0,51,-99.99,,,0.00,162.0,cwc,2013-02-10 17:00:00,
2013-02-10 10:05:00,30.3,12.3,29.94,SSW,209,3.0,-999.0,50,-99.99,,,0.00,148.0,cwc,2013-02-10 17:05:00,
2013-02-10 10:10:00,30.4,12.8,29.94,SSW,200,5.0,-999.0,51,-99.99,,,0.00,134.0,cwc,2013-02-10 17:10:00,
2013-02-10 10:15:00,30.5,12.1,29.94,SSW,209,7.0,-999.0,49,-99.99,,,0.00,207.0,cwc,2013-02-10 17:15:00,
2013-02-10 10:20:00,30.6,12.2,29.94,SSW,209,2.0,-999.0,49,-99.99,,,0.00,158.0,cwc,2013-02-10 17:20:00,
2013-02-10 10:25:00,30.8,12.4,29.94,South,176,2.0,-999.0,49,-99.99,,,0.00,200.0,cwc,2013-02-10 17:25:00,
2013-02-10 10:30:00,30.9,12.5,29.95,SW,220,7.0,-999.0,49,-99.99,,,0.00,160.0,cwc,2013-02-10 17:30:00,
2013-02-10 10:35:00,31.2,12.5,29.95,SSW,210,7.0,-999.0,48,-99.99,,,0.00,183.0,cwc,2013-02-10 17:35:00,
2013-02-10 10:40:00,31.3,12.9,29.95,SSW,210,7.0,-999.0,49,-99.99,,,0.00,199.0,cwc,2013-02-10 17:40:00,
2013-02-10 10:45:00,31.5,12.8,29.95,West,264,4.0,-999.0,48,-99.99,,,0.00,183.0,cwc,2013-02-10 17:45:00,
2013-02-10 10:55:00,31.5,12.4,29.95,SW,215,4.0,-999.0,47,-99.99,,,0.00,213.0,cwc,2013-02-10 17:55:00,
2013-02-10 11:00:00,31.6,12.9,29.95,South,188,3.0,-999.0,48,-99.99,,,0.00,265.0,cwc,2013-02-10 18:00:00,
2013-02-10 11:05:00,32.3,13.2,29.95,SSE,161,0.0,-999.0,47,-99.99,,,0.00,278.0,cwc,2013-02-10 18:05:00,
2013-02-10 11:10:00,32.7,12.9,29.95,SSW,205,6.0,-999.0,45,-99.99,,,0.00,239.0,cwc,2013-02-10 18:10:00,
2013-02-10 11:15:00,32.8,13.4,29.95,SW,218,4.0,-999.0,46,-99.99,,,0.00,260.0,cwc,2013-02-10 18:15:00,
2013-02-10 11:20:00,33.0,13.6,29.95,SW,215,10.0,-999.0,46,-99.99,,,0.00,323.0,cwc,2013-02-10 18:20:00,
2013-02-10 11:25:00,33.2,13.4,29.95,SSW,207,4.0,-999.0,45,-99.99,,,0.00,193.0,cwc,2013-02-10 18:25:00,
2013-02-10 11:30:00,33.3,13.5,29.95,SSW,207,1.0,-999.0,45,-99.99,,,0.00,294.0,cwc,2013-02-10 18:30:00,
2013-02-10 11:35:00,33.3,13.5,29.95,South,169,5.0,-999.0,45,-99.99,,,0.00,394.0,cwc,2013-02-10 18:35:00,
2013-02-10 11:40:00,33.5,14.1,29.95,SW,232,12.0,-999.0,46,-99.99,,,0.00,747.0,cwc,2013-02-10 18:40:00,
2013-02-10 11:45:00,33.8,14.4,29.95,SW,233,8.0,-999.0,46,-99.99,,,0.00,803.0,cwc,2013-02-10 18:45:00,
2013-02-10 11:50:00,33.9,14.8,29.95,SW,227,10.0,-999.0,47,-99.99,,,0.00,912.0,cwc,2013-02-10 18:50:00,
2013-02-10 11:55:00,33.9,15.5,29.94,SSW,207,5.0,-999.0,49,-99.99,,,0.00,316.0,cwc,2013-02-10 18:55:00,
2013-02-10 12:00:00,33.9,15.9,29.95,SW,230,9.0,-999.0,50,-99.99,,,0.00,236.0,cwc,2013-02-10 19:00:00,
2013-02-10 12:05:00,33.5,15.9,29.95,WSW,239,2.0,-999.0,51,-99.99,,,0.00,199.0,cwc,2013-02-10 19:05:00,
2013-02-10 12:10:00,33.2,16.3,29.95,West,270,8.0,-999.0,53,-99.99,,,0.00,392.0,cwc,2013-02-10 19:10:00,
2013-02-10 12:15:00,33.3,17.1,29.95,WSW,240,2.0,-999.0,55,-99.99,,,0.00,710.0,cwc,2013-02-10 19:15:00,
2013-02-10 12:20:00,33.8,16.9,29.95,SW,222,6.0,-999.0,53,-99.99,,,0.00,366.0,cwc,2013-02-10 19:20:00,
2013-02-10 12:25:00,34.1,17.5,29.94,South,183,2.0,-999.0,54,-99.99,,,0.00,341.0,cwc,2013-02-10 19:25:00,
2013-02-10 12:30:00,34.1,16.8,29.94,South,186,3.0,-999.0,52,-99.99,,,0.00,308.0,cwc,2013-02-10 19:30:00,
2013-02-10 12:35:00,34.1,16.8,29.93,South,186,5.0,-999.0,52,-99.99,,,0.00,265.0,cwc,2013-02-10 19:35:00,
2013-02-10 12:40:00,33.9,16.3,29.93,SSW,211,0.0,-999.0,51,-99.99,,,0.00,197.0,cwc,2013-02-10 19:40:00,
2013-02-10 12:45:00,33.9,15.5,29.93,WSW,244,5.0,-999.0,49,-99.99,,,0.00,213.0,cwc,2013-02-10 19:45:00,
2013-02-10 12:50:00,34.4,16.0,29.93,SSW,207,2.0,-999.0,49,-99.99,,,0.00,763.0,cwc,2013-02-10 19:50:00,
2013-02-10 12:55:00,35.3,16.6,29.92,NNW,334,6.0,-999.0,48,-99.99,,,0.00,726.0,cwc,2013-02-10 19:55:00,
2013-02-10 13:00:00,35.8,16.4,29.92,South,186,3.0,-999.0,46,-99.99,,,0.00,693.0,cwc,2013-02-10 20:00:00,
2013-02-10 13:05:00,36.3,16.1,29.92,SSE,156,1.0,-999.0,44,-99.99,,,0.00,330.0,cwc,2013-02-10 20:05:00,
2013-02-10 13:10:00,36.2,16.0,29.92,SSW,206,9.0,-999.0,44,-99.99,,,0.00,629.0,cwc,2013-02-10 20:10:00,
2013-02-10 13:15:00,35.9,15.4,29.92,South,188,2.0,-999.0,43,-99.99,,,0.00,230.0,cwc,2013-02-10 20:15:00,
2013-02-10 13:25:00,35.5,15.3,29.91,SW,215,7.0,-999.0,44,-99.99,,,0.00,341.0,cwc,2013-02-10 20:25:00,
2013-02-10 13:30:00,35.7,15.2,29.91,SSW,211,2.0,-999.0,43,-99.99,,,0.00,253.0,cwc,2013-02-10 20:30:00,
2013-02-10 13:40:00,36.3,15.8,29.91,SSW,196,0.0,-999.0,43,-99.99,,,0.00,443.0,cwc,2013-02-10 20:40:00,
2013-02-10 13:45:00,37.3,16.1,29.91,SSW,196,0.0,-999.0,41,-99.99,,,0.00,796.0,cwc,2013-02-10 20:45:00,
2013-02-10 13:50:00,38.4,16.8,29.91,ESE,119,8.0,-999.0,40,-99.99,,,0.00,798.0,cwc,2013-02-10 20:50:00,
2013-02-10 13:55:00,39.2,16.9,29.91,WSW,239,4.0,-999.0,38,-99.99,,,0.00,747.0,cwc,2013-02-10 20:55:00,
2013-02-10 14:00:00,39.2,16.2,29.91,SSW,211,0.0,-999.0,36,-99.99,,,0.00,770.0,cwc,2013-02-10 21:00:00,
2013-02-10 14:05:00,39.8,16.8,29.91,SSW,210,0.0,-999.0,36,-99.99,,,0.00,765.0,cwc,2013-02-10 21:05:00,
2013-02-10 14:10:00,40.5,17.5,29.91,SSW,210,0.0,-999.0,36,-99.99,,,0.00,677.0,cwc,2013-02-10 21:10:00,
2013-02-10 14:15:00,40.7,17.7,29.91,WSW,238,7.0,-999.0,36,-99.99,,,0.00,638.0,cwc,2013-02-10 21:15:00,
2013-02-10 14:20:00,40.7,16.9,29.91,SW,217,4.0,-999.0,34,-99.99,,,0.00,617.0,cwc,2013-02-10 21:20:00,
2013-02-10 14:25:00,40.7,18.0,29.90,SW,232,1.0,-999.0,37,-99.99,,,0.00,601.0,cwc,2013-02-10 21:25:00,
2013-02-10 14:30:00,40.9,17.1,29.91,SSW,213,0.0,-999.0,34,-99.99,,,0.00,520.0,cwc,2013-02-10 21:30:00,
2013-02-10 14:40:00,41.2,17.4,29.90,SW,217,1.0,-999.0,34,-99.99,,,0.00,533.0,cwc,2013-02-10 21:40:00,
2013-02-10 14:45:00,40.6,16.5,29.90,SW,214,5.0,-999.0,33,-99.99,,,0.00,207.0,cwc,2013-02-10 21:45:00,
2013-02-10 14:55:00,38.5,15.5,29.90,WSW,242,2.0,-999.0,36,-99.99,,,0.00,239.0,cwc,2013-02-10 21:55:00,
2013-02-10 15:00:00,38.0,15.3,29.90,SSW,208,5.0,-999.0,37,-99.99,,,0.00,559.0,cwc,2013-02-10 22:00:00,
2013-02-10 15:05:00,38.3,14.9,29.90,SW,218,8.0,-999.0,35,-99.99,,,0.00,575.0,cwc,2013-02-10 22:05:00,
2013-02-10 15:10:00,38.4,14.6,29.90,SSW,209,8.0,-999.0,34,-99.99,,,0.00,519.0,cwc,2013-02-10 22:10:00,
2013-02-10 15:15:00,38.6,15.2,29.91,SW,218,5.0,-999.0,35,-99.99,,,0.00,522.0,cwc,2013-02-10 22:15:00,
2013-02-10 15:20:00,39.1,15.7,29.91,SSW,209,15.0,-999.0,35,-99.99,,,0.00,524.0,cwc,2013-02-10 22:20:00,
2013-02-10 15:25:00,39.0,15.6,29.91,South,182,7.0,-999.0,35,-99.99,,,0.00,422.0,cwc,2013-02-10 22:25:00,
2013-02-10 15:30:00,38.9,15.9,29.91,SW,236,11.0,-999.0,36,-99.99,,,0.00,348.0,cwc,2013-02-10 22:30:00,
2013-02-10 15:35:00,38.5,15.8,29.91,SW,219,7.0,-999.0,37,-99.99,,,0.00,327.0,cwc,2013-02-10 22:35:00,
2013-02-10 15:40:00,37.6,15.3,29.91,SSW,209,6.0,-999.0,38,-99.99,,,0.00,132.0,cwc,2013-02-10 22:40:00,
2013-02-10 15:45:00,37.0,15.0,29.91,SSW,207,3.0,-999.0,39,-99.99,,,0.00,216.0,cwc,2013-02-10 22:45:00,
2013-02-10 15:50:00,37.1,15.1,29.91,South,175,2.0,-999.0,39,-99.99,,,0.00,292.0,cwc,2013-02-10 22:50:00,
2013-02-10 15:55:00,37.4,15.8,29.92,WSW,252,4.0,-999.0,40,-99.99,,,0.00,260.0,cwc,2013-02-10 22:55:00,
2013-02-10 16:00:00,37.1,15.5,29.91,WSW,249,1.0,-999.0,40,-99.99,,,0.00,204.0,cwc,2013-02-10 23:00:00,
2013-02-10 16:05:00,37.2,15.6,29.92,SSW,192,5.0,-999.0,40,-99.99,,,0.00,95.0,cwc,2013-02-10 23:05:00,
2013-02-10 16:10:00,37.0,15.8,29.92,SSW,194,5.0,-999.0,41,-99.99,,,0.00,76.0,cwc,2013-02-10 23:10:00,
2013-02-10 16:15:00,36.6,15.4,29.92,SSW,200,3.0,-999.0,41,-99.99,,,0.00,70.0,cwc,2013-02-10 23:15:00,
2013-02-10 16:20:00,36.3,15.4,29.92,SSW,203,4.0,-999.0,42,-99.99,,,0.00,65.0,cwc,2013-02-10 23:20:00,
2013-02-10 16:25:00,36.1,15.2,29.92,SSW,203,4.0,-999.0,42,-99.99,,,0.00,69.0,cwc,2013-02-10 23:25:00,
2013-02-10 16:30:00,36.1,15.2,29.93,SSW,203,0.0,-999.0,42,-99.99,,,0.00,62.0,cwc,2013-02-10 23:30:00,
2013-02-10 16:35:00,36.0,15.1,29.93,SSW,206,5.0,-999.0,42,-99.99,,,0.00,51.0,cwc,2013-02-10 23:35:00,
2013-02-10 16:40:00,35.8,15.3,29.93,SSW,213,6.0,-999.0,43,-99.99,,,0.00,37.0,cwc,2013-02-10 23:40:00,
2013-02-10 16:45:00,35.4,15.6,29.94,SW,216,9.0,-999.0,45,-99.99,,,0.00,30.0,cwc,2013-02-10 23:45:00,
2013-02-10 16:50:00,34.9,15.8,29.94,WSW,238,5.0,-999.0,47,-99.99,,,0.00,42.0,cwc,2013-02-10 23:50:00,
2013-02-10 16:55:00,34.4,15.7,29.94,SW,222,0.0,-999.0,48,-99.99,,,0.00,35.0,cwc,2013-02-10 23:55:00,
2013-02-10 17:00:00,34.4,15.7,29.94,WSW,238,3.0,-999.0,48,-99.99,,,0.00,32.0,cwc,2013-02-11 00:00:00,
2013-02-10 17:10:00,34.3,15.6,29.94,WSW,244,0.0,-999.0,48,-99.99,,,0.00,23.0,cwc,2013-02-11 00:10:00,
2013-02-10 17:15:00,34.2,15.8,29.95,WSW,244,1.0,-999.0,49,-99.99,,,0.00,21.0,cwc,2013-02-11 00:15:00,
2013-02-10 17:20:00,34.1,15.7,29.95,WSW,244,0.0,-999.0,49,-99.99,,,0.00,16.0,cwc,2013-02-11 00:20:00,
2013-02-10 17:25:00,33.9,15.5,29.95,WSW,244,0.0,-999.0,49,-99.99,,,0.00,9.0,cwc,2013-02-11 00:25:00,
2013-02-10 17:30:00,33.8,15.4,29.95,WSW,244,0.0,-999.0,49,-99.99,,,0.00,5.0,cwc,2013-02-11 00:30:00,
2013-02-10 17:35:00,33.7,15.7,29.95,WSW,244,0.0,-999.0,50,-99.99,,,0.00,0.0,cwc,2013-02-11 00:35:00,
2013-02-10 17:40:00,33.6,16.0,29.95,WSW,244,0.0,-999.0,51,-99.99,,,0.00,0.0,cwc,2013-02-11 00:40:00,
2013-02-10 17:45:00,33.4,15.8,29.95,WSW,244,0.0,-999.0,51,-99.99,,,0.00,0.0,cwc,2013-02-11 00:45:00,
2013-02-10 17:50:00,33.2,15.6,29.95,WSW,244,0.0,-999.0,51,-99.99,,,0.00,0.0,cwc,2013-02-11 00:50:00,
2013-02-10 17:55:00,33.1,15.8,29.95,WSW,244,0.0,-999.0,52,-99.99,,,0.00,0.0,cwc,2013-02-11 00:55:00,
2013-02-10 18:00:00,33.0,15.4,29.95,WSW,244,0.0,-999.0,51,-99.99,,,0.00,0.0,cwc,2013-02-11 01:00:00,
2013-02-10 18:05:00,32.8,15.5,29.95,WSW,244,0.0,-999.0,52,-99.99,,,0.00,0.0,cwc,2013-02-11 01:05:00,
2013-02-10 18:10:00,32.5,15.6,29.96,WSW,244,0.0,-999.0,53,-99.99,,,0.00,0.0,cwc,2013-02-11 01:10:00,
2013-02-10 18:15:00,32.1,15.2,29.96,WSW,244,0.0,-999.0,53,-99.99,,,0.00,0.0,cwc,2013-02-11 01:15:00,
2013-02-10 18:20:00,31.8,15.2,29.96,WSW,244,0.0,-999.0,54,-99.99,,,0.00,0.0,cwc,2013-02-11 01:20:00,
2013-02-10 18:25:00,31.5,14.9,29.96,WSW,244,1.0,-999.0,54,-99.99,,,0.00,0.0,cwc,2013-02-11 01:25:00,
2013-02-10 18:30:00,31.1,14.9,29.96,WSW,244,2.0,-999.0,55,-99.99,,,0.00,0.0,cwc,2013-02-11 01:30:00,
2013-02-10 18:35:00,30.8,14.6,29.96,WSW,244,2.0,-999.0,55,-99.99,,,0.00,0.0,cwc,2013-02-11 01:35:00,
2013-02-10 18:40:00,30.5,14.7,29.96,WSW,244,2.0,-999.0,56,-99.99,,,0.00,0.0,cwc,2013-02-11 01:40:00,
2013-02-10 18:45:00,30.2,14.4,29.96,WSW,244,2.0,-999.0,56,-99.99,,,0.00,0.0,cwc,2013-02-11 01:45:00,
2013-02-10 18:50:00,30.1,14.3,29.97,WSW,244,1.0,-999.0,56,-99.99,,,0.00,0.0,cwc,2013-02-11 01:50:00,
2013-02-10 18:55:00,30.2,14.7,29.97,WSW,244,0.0,-999.0,57,-99.99,,,0.00,0.0,cwc,2013-02-11 01:55:00,
2013-02-10 19:00:00,30.1,14.6,29.97,WSW,244,0.0,-999.0,57,-99.99,,,0.00,0.0,cwc,2013-02-11 02:00:00,
2013-02-10 19:05:00,29.9,14.4,29.97,WSW,244,0.0,-999.0,57,-99.99,,,0.00,0.0,cwc,2013-02-11 02:05:00,
2013-02-10 19:10:00,29.8,14.7,29.97,WSW,244,0.0,-999.0,58,-99.99,,,0.00,0.0,cwc,2013-02-11 02:10:00,
2013-02-10 19:15:00,29.7,14.6,29.97,WSW,244,0.0,-999.0,58,-99.99,,,0.00,0.0,cwc,2013-02-11 02:15:00,
2013-02-10 19:20:00,29.5,14.7,29.97,WSW,244,0.0,-999.0,59,-99.99,,,0.00,0.0,cwc,2013-02-11 02:20:00,
2013-02-10 19:25:00,29.3,14.5,29.97,WSW,244,1.0,-999.0,59,-99.99,,,0.00,0.0,cwc,2013-02-11 02:25:00,
2013-02-10 19:30:00,29.3,14.5,29.97,WSW,244,3.0,-999.0,59,-99.99,,,0.00,0.0,cwc,2013-02-11 02:30:00,
2013-02-10 19:40:00,29.0,14.6,29.97,WSW,244,3.0,-999.0,60,-99.99,,,0.00,0.0,cwc,2013-02-11 02:40:00,
2013-02-10 19:45:00,29.0,15.0,29.97,WSW,244,0.0,-999.0,61,-99.99,,,0.00,0.0,cwc,2013-02-11 02:45:00,
2013-02-10 19:50:00,28.8,14.8,29.97,WSW,244,0.0,-999.0,61,-99.99,,,0.00,0.0,cwc,2013-02-11 02:50:00,
2013-02-10 19:55:00,28.7,14.3,29.97,WSW,244,0.0,-999.0,60,-99.99,,,0.00,0.0,cwc,2013-02-11 02:55:00,
2013-02-10 20:00:00,28.6,13.8,29.97,WSW,244,0.0,-999.0,59,-99.99,,,0.00,0.0,cwc,2013-02-11 03:00:00,
2013-02-10 20:05:00,28.7,13.9,29.97,WSW,244,0.0,-999.0,59,-99.99,,,0.00,0.0,cwc,2013-02-11 03:05:00,
2013-02-10 20:15:00,28.8,15.1,29.98,WSW,244,0.0,-999.0,62,-99.99,,,0.00,0.0,cwc,2013-02-11 03:15:00,
2013-02-10 20:25:00,28.7,14.7,29.99,WSW,244,0.0,-999.0,61,-99.99,,,0.00,0.0,cwc,2013-02-11 03:25:00,
2013-02-10 20:30:00,28.7,14.3,29.99,WSW,244,0.0,-999.0,60,-99.99,,,0.00,0.0,cwc,2013-02-11 03:30:00,
2013-02-10 20:35:00,28.7,13.9,30.00,WSW,244,0.0,-999.0,59,-99.99,,,0.00,0.0,cwc,2013-02-11 03:35:00,
2013-02-10 20:40:00,28.7,15.0,30.00,WSW,244,2.0,-999.0,62,-99.99,,,0.00,0.0,cwc,2013-02-11 03:40:00,
2013-02-10 20:45:00,29.0,13.5,30.00,South,190,5.0,-999.0,57,-99.99,,,0.00,0.0,cwc,2013-02-11 03:45:00,
2013-02-10 20:50:00,30.5,13.9,30.00,SW,236,12.0,-999.0,54,-99.99,,,0.00,0.0,cwc,2013-02-11 03:50:00,
2013-02-10 20:55:00,31.7,14.4,30.00,SSW,198,3.0,-999.0,52,-99.99,,,0.00,0.0,cwc,2013-02-11 03:55:00,
2013-02-10 21:00:00,32.2,14.6,30.00,WSW,245,5.0,-999.0,51,-99.99,,,0.00,0.0,cwc,2013-02-11 04:00:00,
2013-02-10 21:05:00,32.6,14.6,30.00,SW,226,8.0,-999.0,50,-99.99,,,0.00,0.0,cwc,2013-02-11 04:05:00,
2013-02-10 21:15:00,32.9,14.5,30.00,SW,216,6.0,-999.0,49,-99.99,,,0.00,0.0,cwc,2013-02-11 04:15:00,
2013-02-10 21:20:00,32.9,14.5,30.00,SW,217,5.0,-999.0,49,-99.99,,,0.00,0.0,cwc,2013-02-11 04:20:00,
2013-02-10 21:25:00,32.7,14.3,30.00,SW,217,1.0,-999.0,49,-99.99,,,0.00,0.0,cwc,2013-02-11 04:25:00,
2013-02-10 21:30:00,32.5,14.1,30.00,SW,217,2.0,-999.0,49,-99.99,,,0.00,0.0,cwc,2013-02-11 04:30:00,
2013-02-10 21:35:00,32.2,13.8,30.00,SW,216,4.0,-999.0,49,-99.99,,,0.00,0.0,cwc,2013-02-11 04:35:00,
2013-02-10 21:40:00,32.0,13.6,30.00,SW,215,4.0,-999.0,49,-99.99,,,0.00,0.0,cwc,2013-02-11 04:40:00,
2013-02-10 21:45:00,31.9,13.9,30.00,SW,215,3.0,-999.0,50,-99.99,,,0.00,0.0,cwc,2013-02-11 04:45:00,
2013-02-10 21:50:00,31.9,13.9,30.00,SW,215,0.0,-999.0,50,-99.99,,,0.00,0.0,cwc,2013-02-11 04:50:00,
2013-02-10 21:55:00,31.7,13.7,30.00,SW,214,1.0,-999.0,50,-99.99,,,0.00,0.0,cwc,2013-02-11 04:55:00,
2013-02-10 22:00:00,31.4,13.4,30.01,SW,214,2.0,-999.0,50,-99.99,,,0.00,0.0,cwc,2013-02-11 05:00:00,
2013-02-10 22:05:00,30.8,13.2,30.01,SSE,159,2.0,-999.0,51,-99.99,,,0.00,0.0,cwc,2013-02-11 05:05:00,
2013-02-10 22:10:00,30.5,12.5,30.01,ESE,118,1.0,-999.0,50,-99.99,,,0.00,0.0,cwc,2013-02-11 05:10:00,
2013-02-10 22:15:00,30.3,11.9,30.01,ESE,118,0.0,-999.0,49,-99.99,,,0.00,0.0,cwc,2013-02-11 05:15:00,
2013-02-10 22:20:00,30.1,11.7,30.01,ESE,107,0.0,-999.0,49,-99.99,,,0.00,0.0,cwc,2013-02-11 05:20:00,
2013-02-10 22:25:00,29.9,11.9,30.02,ESE,108,2.0,-999.0,50,-99.99,,,0.00,0.0,cwc,2013-02-11 05:25:00,
2013-02-10 22:30:00,29.8,11.8,30.02,ESE,108,2.0,-999.0,50,-99.99,,,0.00,0.0,cwc,2013-02-11 05:30:00,
2013-02-10 22:40:00,29.7,11.7,30.02,ESE,107,2.0,-999.0,50,-99.99,,,0.00,0.0,cwc,2013-02-11 05:40:00,
2013-02-10 22:45:00,29.6,11.6,30.02,ESE,106,3.0,-999.0,50,-99.99,,,0.00,0.0,cwc,2013-02-11 05:45:00,
2013-02-10 22:50:00,29.5,11.5,30.02,ESE,106,0.0,-999.0,50,-99.99,,,0.00,0.0,cwc,2013-02-11 05:50:00,
2013-02-10 22:55:00,29.4,11.0,30.02,ESE,106,3.0,-999.0,49,-99.99,,,0.00,0.0,cwc,2013-02-11 05:55:00,
2013-02-10 23:00:00,29.3,11.3,30.02,ESE,106,1.0,-999.0,50,-99.99,,,0.00,0.0,cwc,2013-02-11 06:00:00,
2013-02-10 23:05:00,29.2,11.2,30.02,ESE,106,0.0,-999.0,50,-99.99,,,0.00,0.0,cwc,2013-02-11 06:05:00,
2013-02-10 23:10:00,29.2,10.8,30.02,ESE,106,0.0,-999.0,49,-99.99,,,0.00,0.0,cwc,2013-02-11 06:10:00,
2013-02-10 23:15:00,29.1,10.7,30.02,ESE,106,1.0,-999.0,49,-99.99,,,0.00,0.0,cwc,2013-02-11 06:15:00,
2013-02-10 23:20:00,29.1,11.1,30.02,ESE,106,0.0,-999.0,50,-99.99,,,0.00,0.0,cwc,2013-02-11 06:20:00,
2013-02-10 23:25:00,29.0,11.0,30.02,ESE,106,1.0,-999.0,50,-99.99,,,0.00,0.0,cwc,2013-02-11 06:25:00,
2013-02-10 23:30:00,29.0,11.0,30.03,ESE,106,0.0,-999.0,50,-99.99,,,0.00,0.0,cwc,2013-02-11 06:30:00,
2013-02-10 23:35:00,29.0,11.0,30.03,ESE,106,2.0,-999.0,50,-99.99,,,0.00,0.0,cwc,2013-02-11 06:35:00,
2013-02-10 23:40:00,28.9,10.9,30.03,ESE,106,1.0,-999.0,50,-99.99,,,0.00,0.0,cwc,2013-02-11 06:40:00,
2013-02-10 23:45:00,28.8,10.8,30.03,ESE,106,4.0,-999.0,50,-99.99,,,0.00,0.0,cwc,2013-02-11 06:45:00,
2013-02-10 23:50:00,28.8,10.8,30.03,ENE,78,4.0,-999.0,50,-99.99,,,0.00,0.0,cwc,2013-02-11 06:50:00,
2013-02-10 23:55:00,28.6,10.6,30.03,ENE,76,4.0,-999.0,50,-99.99,,,0.00,0.0,cwc,2013-02-11 06:55:00,